WZZ20VJ EPWA-LIMJ
Flight info
| Callsign | WZZ20VJ |
|---|---|
| Flight time | 1h 58m |
| Altitude | 34000 |
| Route | EVINA N744 NAVUR DCT PADKA DCT OGDAS DCT UPLAV DCT LEDVA DCT VAMET DCT RIFEN DCT KOPER DCT NISIL DCT BEROK DCT MIVKI M730 KALMO |
| Aircraft | A21N/M-SDE1E2E3FGIJ1J4RWXY/LB1 |
Departure
| Time | 2026-05-05 14:45 |
|---|---|
| Airport | Warsaw Chopin Airport (EPWA) |
Arrival
| Time | 2026-05-05 16:43 |
|---|---|
| Airport | Genoa Cristoforo Colombo Airport (LIMJ) |
| Time | Latitude | Longitude | Altitude | Speed | Heading |
|---|---|---|---|---|---|
| 2026-05-05 14:18 | 52.17603 | 20.96340 | 333 ft | 0 kts | 242° |
| 2026-05-05 14:37 | 52.17598 | 20.96325 | 334 ft | 2 kts | 242° |
| 2026-05-05 14:37 | 52.17584 | 20.96288 | 334 ft | 4 kts | 223° |
| 2026-05-05 14:38 | 52.17518 | 20.96292 | 334 ft | 14 kts | 157° |
| 2026-05-05 14:38 | 52.17424 | 20.96371 | 334 ft | 12 kts | 152° |
| 2026-05-05 14:38 | 52.17347 | 20.96437 | 334 ft | 12 kts | 152° |
| 2026-05-05 14:38 | 52.17272 | 20.96503 | 333 ft | 12 kts | 151° |
| 2026-05-05 14:39 | 52.17193 | 20.96570 | 334 ft | 12 kts | 152° |
| 2026-05-05 14:39 | 52.17110 | 20.96644 | 332 ft | 14 kts | 150° |
| 2026-05-05 14:39 | 52.17051 | 20.96697 | 331 ft | 9 kts | 152° |
| 2026-05-05 14:39 | 52.16986 | 20.96752 | 330 ft | 11 kts | 153° |
| 2026-05-05 14:40 | 52.16910 | 20.96815 | 330 ft | 12 kts | 153° |
| 2026-05-05 14:40 | 52.16830 | 20.96883 | 331 ft | 13 kts | 145° |
| 2026-05-05 14:40 | 52.16751 | 20.96946 | 332 ft | 12 kts | 160° |
| 2026-05-05 14:40 | 52.16674 | 20.97004 | 333 ft | 11 kts | 121° |
| 2026-05-05 14:41 | 52.16645 | 20.97114 | 336 ft | 10 kts | 112° |
| 2026-05-05 14:41 | 52.16619 | 20.97218 | 337 ft | 10 kts | 111° |
| 2026-05-05 14:41 | 52.16587 | 20.97332 | 337 ft | 11 kts | 117° |
| 2026-05-05 14:41 | 52.16558 | 20.97428 | 337 ft | 8 kts | 116° |
| 2026-05-05 14:42 | 52.16531 | 20.97516 | 337 ft | 9 kts | 116° |
| 2026-05-05 14:42 | 52.16500 | 20.97621 | 337 ft | 11 kts | 115° |
| 2026-05-05 14:42 | 52.16463 | 20.97747 | 336 ft | 13 kts | 115° |
| 2026-05-05 14:42 | 52.16430 | 20.97874 | 335 ft | 6 kts | 110° |
| 2026-05-05 14:43 | 52.16413 | 20.97954 | 335 ft | 8 kts | 109° |
| 2026-05-05 14:43 | 52.16387 | 20.98053 | 335 ft | 10 kts | 117° |
| 2026-05-05 14:43 | 52.16350 | 20.98167 | 334 ft | 12 kts | 123° |
| 2026-05-05 14:43 | 52.16282 | 20.98249 | 334 ft | 12 kts | 150° |
| 2026-05-05 14:44 | 52.16233 | 20.98179 | 333 ft | 11 kts | 275° |
| 2026-05-05 14:44 | 52.16224 | 20.98072 | 333 ft | 8 kts | 257° |
| 2026-05-05 14:44 | 52.16232 | 20.97944 | 333 ft | 26 kts | 291° |
| 2026-05-05 14:44 | 52.16412 | 20.97285 | 337 ft | 98 kts | 295° |
| 2026-05-05 14:45 | 52.16788 | 20.95951 | 342 ft | 157 kts | 292° |
| 2026-05-05 14:45 | 52.17267 | 20.94188 | 618 ft | 178 kts | 292° |
| 2026-05-05 14:45 | 52.17776 | 20.92342 | 1254 ft | 183 kts | 292° |
| 2026-05-05 14:45 | 52.18237 | 20.90407 | 1963 ft | 183 kts | 277° |
| 2026-05-05 14:46 | 52.18177 | 20.88364 | 2524 ft | 191 kts | 258° |
| 2026-05-05 14:46 | 52.17873 | 20.86153 | 2978 ft | 208 kts | 255° |
| 2026-05-05 14:46 | 52.17511 | 20.83752 | 3400 ft | 227 kts | 255° |
| 2026-05-05 14:46 | 52.17128 | 20.81157 | 3799 ft | 249 kts | 255° |
| 2026-05-05 14:47 | 52.16731 | 20.78386 | 4564 ft | 254 kts | 256° |
| 2026-05-05 14:47 | 52.16338 | 20.75578 | 5409 ft | 255 kts | 256° |
| 2026-05-05 14:47 | 52.15903 | 20.72774 | 6149 ft | 259 kts | 248° |
| 2026-05-05 14:47 | 52.14987 | 20.70268 | 6902 ft | 260 kts | 227° |
| 2026-05-05 14:48 | 52.13644 | 20.68326 | 7662 ft | 261 kts | 218° |
| 2026-05-05 14:48 | 52.12200 | 20.66516 | 8377 ft | 264 kts | 217° |
| 2026-05-05 14:48 | 52.10751 | 20.64734 | 8913 ft | 268 kts | 218° |
| 2026-05-05 14:48 | 52.09230 | 20.62837 | 9213 ft | 281 kts | 218° |
| 2026-05-05 14:49 | 52.07670 | 20.60868 | 9766 ft | 284 kts | 218° |
| 2026-05-05 14:49 | 52.06106 | 20.58898 | 10261 ft | 290 kts | 218° |
| 2026-05-05 14:49 | 52.04478 | 20.56846 | 10517 ft | 304 kts | 219° |
| 2026-05-05 14:49 | 52.02802 | 20.54725 | 10934 ft | 312 kts | 219° |
| 2026-05-05 14:50 | 52.01077 | 20.52544 | 11543 ft | 314 kts | 219° |
| 2026-05-05 14:50 | 51.99341 | 20.50358 | 12154 ft | 317 kts | 219° |
| 2026-05-05 14:50 | 51.97604 | 20.48173 | 12754 ft | 319 kts | 219° |
| 2026-05-05 14:50 | 51.95804 | 20.46049 | 13351 ft | 323 kts | 212° |
| 2026-05-05 14:51 | 51.93740 | 20.44574 | 13945 ft | 328 kts | 198° |
| 2026-05-05 14:51 | 51.91491 | 20.43909 | 14551 ft | 333 kts | 189° |
| 2026-05-05 14:51 | 51.89176 | 20.43554 | 15157 ft | 336 kts | 188° |
| 2026-05-05 14:51 | 51.86866 | 20.43240 | 15730 ft | 339 kts | 188° |
| 2026-05-05 14:52 | 51.84493 | 20.42918 | 16297 ft | 342 kts | 188° |
| 2026-05-05 14:52 | 51.82119 | 20.42581 | 16845 ft | 345 kts | 188° |
| 2026-05-05 14:52 | 51.79718 | 20.42228 | 17381 ft | 349 kts | 188° |
| 2026-05-05 14:52 | 51.77313 | 20.41865 | 17899 ft | 352 kts | 188° |
| 2026-05-05 14:53 | 51.74836 | 20.41485 | 18415 ft | 355 kts | 189° |
| 2026-05-05 14:53 | 51.72400 | 20.41110 | 18906 ft | 358 kts | 189° |
| 2026-05-05 14:53 | 51.69912 | 20.40728 | 19390 ft | 361 kts | 189° |
| 2026-05-05 14:53 | 51.67392 | 20.40345 | 19864 ft | 364 kts | 189° |
| 2026-05-05 14:54 | 51.64881 | 20.39964 | 20320 ft | 367 kts | 189° |
| 2026-05-05 14:54 | 51.62336 | 20.39581 | 20770 ft | 370 kts | 189° |
| 2026-05-05 14:54 | 51.59761 | 20.39193 | 21210 ft | 373 kts | 189° |
| 2026-05-05 14:54 | 51.57172 | 20.38802 | 21641 ft | 376 kts | 189° |
| 2026-05-05 14:55 | 51.54577 | 20.38409 | 22062 ft | 379 kts | 189° |
| 2026-05-05 14:55 | 51.51956 | 20.38012 | 22468 ft | 382 kts | 189° |
| 2026-05-05 14:55 | 51.49298 | 20.37611 | 22869 ft | 385 kts | 189° |
| 2026-05-05 14:55 | 51.46652 | 20.37213 | 23259 ft | 388 kts | 189° |
| 2026-05-05 14:56 | 51.43930 | 20.36805 | 23645 ft | 391 kts | 189° |
| 2026-05-05 14:56 | 51.41268 | 20.36324 | 24009 ft | 392 kts | 194° |
| 2026-05-05 14:56 | 51.38650 | 20.35107 | 24377 ft | 389 kts | 207° |
| 2026-05-05 14:56 | 51.36277 | 20.33053 | 24731 ft | 387 kts | 218° |
| 2026-05-05 14:57 | 51.34119 | 20.30512 | 25089 ft | 388 kts | 220° |
| 2026-05-05 14:57 | 51.31990 | 20.27890 | 25432 ft | 391 kts | 221° |
| 2026-05-05 14:57 | 51.29821 | 20.25222 | 25777 ft | 394 kts | 220° |
| 2026-05-05 14:57 | 51.27645 | 20.22568 | 26117 ft | 396 kts | 220° |
| 2026-05-05 14:58 | 51.25437 | 20.19893 | 26449 ft | 399 kts | 220° |
| 2026-05-05 14:58 | 51.23246 | 20.17251 | 26768 ft | 401 kts | 220° |
| 2026-05-05 14:58 | 51.21005 | 20.14558 | 27080 ft | 404 kts | 220° |
| 2026-05-05 14:58 | 51.18749 | 20.11852 | 27391 ft | 406 kts | 220° |
| 2026-05-05 14:59 | 51.16501 | 20.09162 | 27698 ft | 409 kts | 220° |
| 2026-05-05 14:59 | 51.14211 | 20.06426 | 28000 ft | 411 kts | 220° |
| 2026-05-05 14:59 | 51.11942 | 20.03718 | 28296 ft | 413 kts | 220° |
| 2026-05-05 14:59 | 51.09632 | 20.00963 | 28589 ft | 416 kts | 220° |
| 2026-05-05 15:00 | 51.07308 | 19.98203 | 28876 ft | 418 kts | 220° |
| 2026-05-05 15:00 | 51.05757 | 19.96363 | 29066 ft | 420 kts | 220° |
| 2026-05-05 15:00 | 51.02669 | 19.92642 | 29441 ft | 422 kts | 223° |
| 2026-05-05 15:00 | 51.00417 | 19.89612 | 29719 ft | 422 kts | 226° |
| 2026-05-05 15:01 | 50.98281 | 19.86391 | 29993 ft | 423 kts | 229° |
| 2026-05-05 15:01 | 50.96197 | 19.83144 | 30257 ft | 426 kts | 229° |
| 2026-05-05 15:01 | 50.94096 | 19.79874 | 30514 ft | 428 kts | 229° |
| 2026-05-05 15:01 | 50.91947 | 19.76535 | 30778 ft | 430 kts | 229° |
| 2026-05-05 15:02 | 50.89808 | 19.73217 | 31027 ft | 432 kts | 229° |
| 2026-05-05 15:02 | 50.87653 | 19.69897 | 31264 ft | 435 kts | 229° |
| 2026-05-05 15:02 | 50.85488 | 19.66575 | 31494 ft | 437 kts | 229° |
| 2026-05-05 15:02 | 50.83305 | 19.63224 | 31732 ft | 439 kts | 229° |
| 2026-05-05 15:03 | 50.81118 | 19.59864 | 31949 ft | 441 kts | 229° |
| 2026-05-05 15:03 | 50.78912 | 19.56474 | 32178 ft | 443 kts | 229° |
| 2026-05-05 15:03 | 50.76727 | 19.53121 | 32403 ft | 444 kts | 229° |
| 2026-05-05 15:03 | 50.74495 | 19.49698 | 32619 ft | 446 kts | 229° |
| 2026-05-05 15:04 | 50.72280 | 19.46303 | 32814 ft | 449 kts | 229° |
| 2026-05-05 15:04 | 50.70029 | 19.42859 | 33008 ft | 451 kts | 229° |
| 2026-05-05 15:04 | 50.67799 | 19.39452 | 33201 ft | 453 kts | 229° |
| 2026-05-05 15:04 | 50.65535 | 19.35995 | 33405 ft | 454 kts | 229° |
| 2026-05-05 15:05 | 50.60987 | 19.29049 | 33779 ft | 458 kts | 228° |
| 2026-05-05 15:05 | 50.58683 | 19.25535 | 33822 ft | 460 kts | 228° |
| 2026-05-05 15:06 | 50.54116 | 19.18599 | 33832 ft | 460 kts | 228° |
| 2026-05-05 15:06 | 50.49524 | 19.11665 | 33835 ft | 460 kts | 229° |
| 2026-05-05 15:07 | 50.44891 | 19.04685 | 33837 ft | 459 kts | 230° |
| 2026-05-05 15:07 | 50.40308 | 18.97798 | 33836 ft | 459 kts | 231° |
| 2026-05-05 15:08 | 50.35706 | 18.90892 | 33836 ft | 457 kts | 231° |
| 2026-05-05 15:08 | 50.31141 | 18.84051 | 33836 ft | 458 kts | 231° |
| 2026-05-05 15:09 | 50.26540 | 18.77186 | 33836 ft | 458 kts | 231° |
| 2026-05-05 15:09 | 50.21957 | 18.70371 | 33836 ft | 458 kts | 231° |
| 2026-05-05 15:10 | 50.17343 | 18.63529 | 33836 ft | 457 kts | 231° |
| 2026-05-05 15:10 | 50.12736 | 18.56717 | 33836 ft | 458 kts | 231° |
| 2026-05-05 15:11 | 50.08128 | 18.49923 | 33836 ft | 457 kts | 231° |
| 2026-05-05 15:11 | 50.03512 | 18.43137 | 33836 ft | 457 kts | 231° |
| 2026-05-05 15:12 | 49.98896 | 18.36369 | 33836 ft | 457 kts | 231° |
| 2026-05-05 15:12 | 49.94263 | 18.29583 | 33836 ft | 458 kts | 230° |
| 2026-05-05 15:13 | 49.89469 | 18.23077 | 33834 ft | 460 kts | 227° |
| 2026-05-05 15:13 | 49.84618 | 18.16680 | 33835 ft | 461 kts | 227° |
| 2026-05-05 15:14 | 49.79743 | 18.10251 | 33836 ft | 461 kts | 227° |
| 2026-05-05 15:14 | 49.74893 | 18.03853 | 33836 ft | 461 kts | 227° |
| 2026-05-05 15:15 | 49.69990 | 17.97453 | 33836 ft | 462 kts | 226° |
| 2026-05-05 15:15 | 49.64928 | 17.91400 | 33835 ft | 463 kts | 225° |
| 2026-05-05 15:16 | 49.59815 | 17.85321 | 33835 ft | 463 kts | 225° |
| 2026-05-05 15:16 | 49.54723 | 17.79283 | 33836 ft | 463 kts | 225° |
| 2026-05-05 15:17 | 49.49650 | 17.73280 | 33836 ft | 463 kts | 225° |
| 2026-05-05 15:17 | 49.44543 | 17.67254 | 33836 ft | 463 kts | 225° |
| 2026-05-05 15:18 | 49.39436 | 17.61242 | 33835 ft | 463 kts | 225° |
| 2026-05-05 15:18 | 49.34345 | 17.55265 | 33830 ft | 464 kts | 225° |
| 2026-05-05 15:19 | 49.29339 | 17.49133 | 33818 ft | 462 kts | 227° |
| 2026-05-05 15:19 | 49.24369 | 17.42873 | 33810 ft | 462 kts | 227° |
| 2026-05-05 15:20 | 49.19423 | 17.36654 | 33805 ft | 462 kts | 227° |
| 2026-05-05 15:20 | 49.14457 | 17.30411 | 33799 ft | 463 kts | 226° |
| 2026-05-05 15:21 | 49.09484 | 17.24174 | 33791 ft | 463 kts | 226° |
| 2026-05-05 15:21 | 49.04526 | 17.17991 | 33783 ft | 464 kts | 227° |
| 2026-05-05 15:22 | 48.99533 | 17.11785 | 33779 ft | 463 kts | 227° |
| 2026-05-05 15:22 | 48.94534 | 17.05584 | 33781 ft | 462 kts | 228° |
| 2026-05-05 15:23 | 48.89561 | 16.99432 | 33780 ft | 462 kts | 229° |
| 2026-05-05 15:23 | 48.84561 | 16.93309 | 33781 ft | 461 kts | 230° |
| 2026-05-05 15:24 | 48.79589 | 16.87207 | 33781 ft | 461 kts | 231° |
| 2026-05-05 15:24 | 48.74546 | 16.81176 | 33781 ft | 467 kts | 228° |
| 2026-05-05 15:25 | 48.69033 | 16.75887 | 33781 ft | 476 kts | 220° |
| 2026-05-05 15:25 | 48.63129 | 16.71226 | 33782 ft | 478 kts | 219° |
| 2026-05-05 15:26 | 48.57250 | 16.66634 | 33783 ft | 477 kts | 219° |
| 2026-05-05 15:26 | 48.51405 | 16.62060 | 33783 ft | 477 kts | 219° |
| 2026-05-05 15:27 | 48.45517 | 16.57456 | 33783 ft | 477 kts | 219° |
| 2026-05-05 15:27 | 48.39664 | 16.52887 | 33783 ft | 477 kts | 219° |
| 2026-05-05 15:28 | 48.33741 | 16.48276 | 33783 ft | 477 kts | 219° |
| 2026-05-05 15:28 | 48.27870 | 16.43718 | 33783 ft | 477 kts | 219° |
| 2026-05-05 15:29 | 48.22006 | 16.39176 | 33783 ft | 477 kts | 219° |
| 2026-05-05 15:29 | 48.16148 | 16.34652 | 33784 ft | 477 kts | 219° |
| 2026-05-05 15:30 | 48.10237 | 16.30073 | 33783 ft | 477 kts | 219° |
| 2026-05-05 15:30 | 48.04374 | 16.25553 | 33782 ft | 477 kts | 219° |
| 2026-05-05 15:31 | 47.98488 | 16.21037 | 33783 ft | 478 kts | 219° |
| 2026-05-05 15:31 | 47.92581 | 16.16521 | 33782 ft | 478 kts | 219° |
| 2026-05-05 15:32 | 47.86684 | 16.12038 | 33780 ft | 478 kts | 218° |
| 2026-05-05 15:32 | 47.80757 | 16.07559 | 33782 ft | 478 kts | 219° |
| 2026-05-05 15:33 | 47.74869 | 16.03104 | 33783 ft | 478 kts | 219° |
| 2026-05-05 15:33 | 47.68967 | 15.98642 | 33792 ft | 478 kts | 219° |
| 2026-05-05 15:34 | 47.63063 | 15.94187 | 33809 ft | 477 kts | 219° |
| 2026-05-05 15:34 | 47.57127 | 15.89719 | 33830 ft | 477 kts | 219° |
| 2026-05-05 15:35 | 47.51227 | 15.85289 | 33851 ft | 477 kts | 219° |
| 2026-05-05 15:35 | 47.45305 | 15.80853 | 33869 ft | 477 kts | 219° |
| 2026-05-05 15:36 | 47.39418 | 15.76455 | 33881 ft | 477 kts | 219° |
| 2026-05-05 15:36 | 47.33492 | 15.72039 | 33887 ft | 477 kts | 219° |
| 2026-05-05 15:37 | 47.27570 | 15.67637 | 33890 ft | 477 kts | 219° |
| 2026-05-05 15:37 | 47.21660 | 15.63255 | 33891 ft | 477 kts | 219° |
| 2026-05-05 15:38 | 47.15776 | 15.58903 | 33891 ft | 477 kts | 219° |
| 2026-05-05 15:38 | 47.09871 | 15.54547 | 33891 ft | 477 kts | 219° |
| 2026-05-05 15:39 | 47.03954 | 15.50191 | 33891 ft | 477 kts | 219° |
| 2026-05-05 15:39 | 46.97995 | 15.45808 | 33890 ft | 479 kts | 218° |
| 2026-05-05 15:40 | 46.92046 | 15.41444 | 33890 ft | 484 kts | 217° |
| 2026-05-05 15:40 | 46.86007 | 15.37049 | 33887 ft | 488 kts | 217° |
| 2026-05-05 15:41 | 46.80193 | 15.32151 | 33890 ft | 476 kts | 226° |
| 2026-05-05 15:41 | 46.75233 | 15.26102 | 33891 ft | 461 kts | 237° |
| 2026-05-05 15:42 | 46.71123 | 15.19071 | 33893 ft | 454 kts | 245° |
| 2026-05-05 15:42 | 46.67324 | 15.11699 | 33892 ft | 455 kts | 245° |
| 2026-05-05 15:43 | 46.63537 | 15.04403 | 33896 ft | 454 kts | 245° |
| 2026-05-05 15:43 | 46.59704 | 14.97089 | 33909 ft | 455 kts | 244° |
| 2026-05-05 15:44 | 46.55849 | 14.89772 | 33938 ft | 455 kts | 244° |
| 2026-05-05 15:44 | 46.52004 | 14.82504 | 33976 ft | 455 kts | 244° |
| 2026-05-05 15:45 | 46.48158 | 14.75258 | 33998 ft | 455 kts | 244° |
| 2026-05-05 15:45 | 46.44291 | 14.67989 | 34007 ft | 454 kts | 244° |
| 2026-05-05 15:46 | 46.40431 | 14.60746 | 34013 ft | 454 kts | 244° |
| 2026-05-05 15:46 | 46.36578 | 14.53537 | 34019 ft | 454 kts | 244° |
| 2026-05-05 15:47 | 46.32732 | 14.46361 | 34024 ft | 454 kts | 244° |
| 2026-05-05 15:47 | 46.28863 | 14.39160 | 34026 ft | 454 kts | 244° |
| 2026-05-05 15:48 | 46.24988 | 14.31959 | 34027 ft | 454 kts | 243° |
| 2026-05-05 15:48 | 46.21135 | 14.24805 | 34027 ft | 453 kts | 243° |
| 2026-05-05 15:49 | 46.17257 | 14.17633 | 34027 ft | 453 kts | 243° |
| 2026-05-05 15:49 | 46.13377 | 14.10482 | 34027 ft | 453 kts | 243° |
| 2026-05-05 15:50 | 46.09508 | 14.03373 | 34027 ft | 453 kts | 243° |
| 2026-05-05 15:50 | 46.05624 | 13.96253 | 34027 ft | 453 kts | 243° |
| 2026-05-05 15:51 | 46.01725 | 13.89125 | 34027 ft | 453 kts | 243° |
| 2026-05-05 15:51 | 45.97841 | 13.82044 | 34027 ft | 452 kts | 243° |
| 2026-05-05 15:52 | 45.93940 | 13.74950 | 34027 ft | 452 kts | 243° |
| 2026-05-05 15:52 | 45.90056 | 13.67907 | 34027 ft | 452 kts | 243° |
| 2026-05-05 15:53 | 45.86250 | 13.60734 | 34027 ft | 448 kts | 247° |
| 2026-05-05 15:53 | 45.83049 | 13.53145 | 34028 ft | 443 kts | 254° |
| 2026-05-05 15:54 | 45.80317 | 13.45316 | 34027 ft | 441 kts | 255° |
| 2026-05-05 15:54 | 45.77578 | 13.37401 | 34027 ft | 442 kts | 255° |
| 2026-05-05 15:55 | 45.74848 | 13.29537 | 34027 ft | 442 kts | 255° |
| 2026-05-05 15:55 | 45.72125 | 13.21719 | 34027 ft | 442 kts | 255° |
| 2026-05-05 15:56 | 45.69378 | 13.13858 | 34028 ft | 441 kts | 254° |
| 2026-05-05 15:56 | 45.66635 | 13.06039 | 34029 ft | 435 kts | 253° |
| 2026-05-05 15:57 | 45.63926 | 12.98342 | 34028 ft | 432 kts | 252° |
| 2026-05-05 15:57 | 45.61244 | 12.90756 | 34027 ft | 429 kts | 252° |
| 2026-05-05 15:58 | 45.58540 | 12.83137 | 34025 ft | 429 kts | 252° |
| 2026-05-05 15:58 | 45.55850 | 12.75572 | 34018 ft | 430 kts | 252° |
| 2026-05-05 15:59 | 45.53143 | 12.67977 | 34010 ft | 429 kts | 252° |
| 2026-05-05 15:59 | 45.50457 | 12.60460 | 34005 ft | 429 kts | 252° |
| 2026-05-05 16:00 | 45.47747 | 12.52899 | 34003 ft | 429 kts | 252° |
| 2026-05-05 16:00 | 45.45030 | 12.45340 | 34002 ft | 429 kts | 252° |
| 2026-05-05 16:01 | 45.42310 | 12.37790 | 34002 ft | 429 kts | 252° |
| 2026-05-05 16:01 | 45.39579 | 12.30224 | 34002 ft | 430 kts | 251° |
| 2026-05-05 16:02 | 45.36858 | 12.22697 | 34001 ft | 430 kts | 251° |
| 2026-05-05 16:02 | 45.34108 | 12.15119 | 34003 ft | 430 kts | 251° |
| 2026-05-05 16:03 | 45.31368 | 12.07599 | 34006 ft | 430 kts | 251° |
| 2026-05-05 16:03 | 45.28621 | 12.00080 | 34014 ft | 430 kts | 251° |
| 2026-05-05 16:04 | 45.25860 | 11.92542 | 34020 ft | 429 kts | 251° |
| 2026-05-05 16:04 | 45.23109 | 11.85055 | 34023 ft | 429 kts | 251° |
| 2026-05-05 16:05 | 45.20229 | 11.77592 | 34022 ft | 437 kts | 245° |
| 2026-05-05 16:05 | 45.16500 | 11.70719 | 34026 ft | 443 kts | 240° |
| 2026-05-05 16:06 | 45.12631 | 11.63886 | 34017 ft | 444 kts | 240° |
| 2026-05-05 16:06 | 45.08806 | 11.57101 | 33999 ft | 444 kts | 240° |
| 2026-05-05 16:07 | 45.04942 | 11.50226 | 33977 ft | 446 kts | 240° |
| 2026-05-05 16:07 | 45.01094 | 11.43390 | 33961 ft | 448 kts | 240° |
| 2026-05-05 16:08 | 44.97182 | 11.36454 | 33956 ft | 450 kts | 240° |
| 2026-05-05 16:08 | 44.93284 | 11.29546 | 33952 ft | 452 kts | 239° |
| 2026-05-05 16:09 | 44.89350 | 11.22593 | 33946 ft | 452 kts | 239° |
| 2026-05-05 16:09 | 44.85394 | 11.15678 | 33951 ft | 453 kts | 239° |
| 2026-05-05 16:10 | 44.81443 | 11.08772 | 33953 ft | 452 kts | 239° |
| 2026-05-05 16:10 | 44.77504 | 11.01882 | 33952 ft | 452 kts | 239° |
| 2026-05-05 16:11 | 44.73569 | 10.94999 | 33951 ft | 449 kts | 239° |
| 2026-05-05 16:12 | 44.65796 | 10.81455 | 33952 ft | 444 kts | 237° |
| 2026-05-05 16:13 | 44.56101 | 10.64676 | 33954 ft | 443 kts | 237° |
| 2026-05-05 16:13 | 44.52226 | 10.57994 | 33960 ft | 442 kts | 237° |
| 2026-05-05 16:14 | 44.48423 | 10.51460 | 33122 ft | 429 kts | 237° |
| 2026-05-05 16:14 | 44.44654 | 10.44966 | 30388 ft | 437 kts | 237° |
| 2026-05-05 16:15 | 44.40890 | 10.38514 | 28279 ft | 426 kts | 236° |
| 2026-05-05 16:15 | 44.37212 | 10.32225 | 26298 ft | 413 kts | 235° |
| 2026-05-05 16:16 | 44.33646 | 10.26117 | 24337 ft | 401 kts | 235° |
| 2026-05-05 16:16 | 44.30194 | 10.20234 | 22877 ft | 382 kts | 235° |
| 2026-05-05 16:17 | 44.26883 | 10.14611 | 21983 ft | 369 kts | 234° |
| 2026-05-05 16:17 | 44.25272 | 10.11878 | 21554 ft | 364 kts | 234° |
| 2026-05-05 16:18 | 44.23173 | 10.05717 | 20628 ft | 347 kts | 268° |
| 2026-05-05 16:18 | 44.23341 | 10.02459 | 20194 ft | 340 kts | 285° |
| 2026-05-05 16:18 | 44.24634 | 9.96141 | 19215 ft | 333 kts | 288° |
| 2026-05-05 16:19 | 44.25275 | 9.93103 | 18352 ft | 331 kts | 288° |
| 2026-05-05 16:19 | 44.25917 | 9.90035 | 17415 ft | 329 kts | 288° |
| 2026-05-05 16:19 | 44.27179 | 9.83933 | 15851 ft | 329 kts | 288° |
| 2026-05-05 16:20 | 44.28421 | 9.77868 | 15054 ft | 321 kts | 287° |
| 2026-05-05 16:20 | 44.29636 | 9.71903 | 14135 ft | 318 kts | 287° |
| 2026-05-05 16:21 | 44.30832 | 9.66012 | 13232 ft | 315 kts | 287° |
| 2026-05-05 16:22 | 44.31375 | 9.57096 | 11833 ft | 317 kts | 250° |
| 2026-05-05 16:22 | 44.29381 | 9.51656 | 11023 ft | 312 kts | 243° |
| 2026-05-05 16:23 | 44.27308 | 9.46442 | 10408 ft | 300 kts | 243° |
| 2026-05-05 16:23 | 44.26326 | 9.43971 | 10159 ft | 285 kts | 243° |
| 2026-05-05 16:23 | 44.24459 | 9.39244 | 8901 ft | 276 kts | 243° |
| 2026-05-05 16:24 | 44.23562 | 9.36928 | 8242 ft | 272 kts | 243° |
| 2026-05-05 16:24 | 44.22677 | 9.34612 | 7576 ft | 269 kts | 242° |
| 2026-05-05 16:24 | 44.20972 | 9.30034 | 6323 ft | 262 kts | 242° |
| 2026-05-05 16:25 | 44.20152 | 9.27783 | 6042 ft | 264 kts | 242° |
| 2026-05-05 16:25 | 44.18517 | 9.23196 | 5995 ft | 265 kts | 248° |
| 2026-05-05 16:25 | 44.18260 | 9.20650 | 5983 ft | 267 kts | 276° |
| 2026-05-05 16:26 | 44.20247 | 9.16504 | 5672 ft | 271 kts | 330° |
| 2026-05-05 16:26 | 44.23816 | 9.14740 | 4827 ft | 274 kts | 342° |
| 2026-05-05 16:27 | 44.25663 | 9.14062 | 4536 ft | 272 kts | 348° |
| 2026-05-05 16:27 | 44.27525 | 9.13676 | 4505 ft | 274 kts | 352° |
| 2026-05-05 16:27 | 44.29441 | 9.13365 | 4500 ft | 275 kts | 352° |
| 2026-05-05 16:27 | 44.31334 | 9.13073 | 4498 ft | 275 kts | 353° |
| 2026-05-05 16:28 | 44.33227 | 9.12785 | 4497 ft | 275 kts | 353° |
| 2026-05-05 16:28 | 44.35123 | 9.12390 | 4483 ft | 273 kts | 340° |
| 2026-05-05 16:28 | 44.36728 | 9.11055 | 4488 ft | 270 kts | 312° |
| 2026-05-05 16:28 | 44.37702 | 9.08869 | 4392 ft | 265 kts | 284° |
| 2026-05-05 16:29 | 44.37917 | 9.06359 | 4347 ft | 264 kts | 268° |
| 2026-05-05 16:29 | 44.37819 | 9.03786 | 4311 ft | 262 kts | 256° |
| 2026-05-05 16:29 | 44.37071 | 9.01518 | 4299 ft | 260 kts | 229° |
| 2026-05-05 16:29 | 44.35627 | 9.00026 | 4296 ft | 257 kts | 200° |
| 2026-05-05 16:30 | 44.33945 | 8.99540 | 4301 ft | 241 kts | 186° |
| 2026-05-05 16:30 | 44.32337 | 8.99402 | 4410 ft | 220 kts | 183° |
| 2026-05-05 16:30 | 44.30874 | 8.99333 | 4443 ft | 202 kts | 182° |
| 2026-05-05 16:30 | 44.29518 | 8.99281 | 4458 ft | 187 kts | 182° |
| 2026-05-05 16:31 | 44.28230 | 8.99434 | 4464 ft | 188 kts | 159° |
| 2026-05-05 16:31 | 44.27240 | 9.00578 | 4535 ft | 193 kts | 122° |
| 2026-05-05 16:31 | 44.26785 | 9.02354 | 4547 ft | 196 kts | 105° |
| 2026-05-05 16:31 | 44.26509 | 9.04224 | 4518 ft | 196 kts | 102° |
| 2026-05-05 16:32 | 44.26263 | 9.06105 | 4506 ft | 196 kts | 102° |
| 2026-05-05 16:32 | 44.26026 | 9.07967 | 4501 ft | 196 kts | 102° |
| 2026-05-05 16:32 | 44.25788 | 9.09838 | 4498 ft | 196 kts | 102° |
| 2026-05-05 16:32 | 44.25551 | 9.11710 | 4497 ft | 196 kts | 102° |
| 2026-05-05 16:33 | 44.25314 | 9.13582 | 4497 ft | 196 kts | 102° |
| 2026-05-05 16:33 | 44.25076 | 9.15461 | 4497 ft | 196 kts | 102° |
| 2026-05-05 16:33 | 44.24835 | 9.17351 | 4497 ft | 196 kts | 102° |
| 2026-05-05 16:33 | 44.24594 | 9.19228 | 4497 ft | 196 kts | 102° |
| 2026-05-05 16:34 | 44.24356 | 9.21091 | 4497 ft | 196 kts | 102° |
| 2026-05-05 16:34 | 44.24119 | 9.22970 | 4496 ft | 196 kts | 99° |
| 2026-05-05 16:34 | 44.24274 | 9.24841 | 4472 ft | 200 kts | 65° |
| 2026-05-05 16:34 | 44.25233 | 9.26235 | 4481 ft | 202 kts | 27° |
| 2026-05-05 16:35 | 44.26532 | 9.26895 | 4503 ft | 202 kts | 14° |
| 2026-05-05 16:35 | 44.27916 | 9.27275 | 4488 ft | 200 kts | 357° |
| 2026-05-05 16:35 | 44.29203 | 9.26667 | 4490 ft | 196 kts | 322° |
| 2026-05-05 16:35 | 44.30236 | 9.25450 | 4503 ft | 196 kts | 314° |
| 2026-05-05 16:36 | 44.31209 | 9.24128 | 4499 ft | 195 kts | 312° |
| 2026-05-05 16:36 | 44.32090 | 9.22715 | 4490 ft | 187 kts | 304° |
| 2026-05-05 16:36 | 44.32772 | 9.21203 | 4491 ft | 182 kts | 294° |
| 2026-05-05 16:36 | 44.33278 | 9.19607 | 4495 ft | 181 kts | 288° |
| 2026-05-05 16:37 | 44.33732 | 9.17957 | 4496 ft | 181 kts | 287° |
| 2026-05-05 16:37 | 44.34159 | 9.16287 | 4496 ft | 181 kts | 286° |
| 2026-05-05 16:37 | 44.34554 | 9.14646 | 4401 ft | 176 kts | 285° |
| 2026-05-05 16:37 | 44.34922 | 9.13044 | 4179 ft | 174 kts | 284° |
| 2026-05-05 16:38 | 44.35286 | 9.11418 | 3932 ft | 173 kts | 284° |
| 2026-05-05 16:38 | 44.35638 | 9.09808 | 3689 ft | 173 kts | 284° |
| 2026-05-05 16:38 | 44.35981 | 9.08230 | 3475 ft | 164 kts | 284° |
| 2026-05-05 16:38 | 44.36301 | 9.06758 | 3235 ft | 157 kts | 284° |
| 2026-05-05 16:39 | 44.36609 | 9.05334 | 3005 ft | 150 kts | 284° |
| 2026-05-05 16:39 | 44.36910 | 9.03945 | 2795 ft | 149 kts | 284° |
| 2026-05-05 16:39 | 44.37210 | 9.02554 | 2586 ft | 148 kts | 284° |
| 2026-05-05 16:39 | 44.37508 | 9.01181 | 2379 ft | 148 kts | 284° |
| 2026-05-05 16:40 | 44.37808 | 8.99804 | 2172 ft | 148 kts | 284° |
| 2026-05-05 16:40 | 44.38112 | 8.98418 | 1963 ft | 148 kts | 284° |
| 2026-05-05 16:40 | 44.38410 | 8.97054 | 1758 ft | 148 kts | 284° |
| 2026-05-05 16:40 | 44.38714 | 8.95668 | 1549 ft | 148 kts | 284° |
| 2026-05-05 16:41 | 44.39030 | 8.94310 | 1343 ft | 148 kts | 287° |
| 2026-05-05 16:41 | 44.39360 | 8.92949 | 1135 ft | 147 kts | 285° |
| 2026-05-05 16:41 | 44.39662 | 8.91568 | 924 ft | 147 kts | 284° |
| 2026-05-05 16:41 | 44.39981 | 8.90219 | 721 ft | 147 kts | 287° |
| 2026-05-05 16:42 | 44.40283 | 8.88859 | 528 ft | 147 kts | 284° |
| 2026-05-05 16:42 | 44.40553 | 8.87473 | 325 ft | 146 kts | 283° |
| 2026-05-05 16:42 | 44.40824 | 8.86099 | 101 ft | 146 kts | 283° |
| 2026-05-05 16:42 | 44.41081 | 8.84765 | 14 ft | 133 kts | 284° |
| 2026-05-05 16:43 | 44.41289 | 8.83696 | 9 ft | 92 kts | 286° |
| 2026-05-05 16:43 | 44.41434 | 8.82974 | 9 ft | 63 kts | 287° |
| 2026-05-05 16:43 | 44.41509 | 8.82565 | 9 ft | 25 kts | 287° |
| 2026-05-05 16:43 | 44.41592 | 8.82474 | 9 ft | 3 kts | 45° |
| 2026-05-05 16:44 | 44.41622 | 8.82495 | 9 ft | 7 kts | 25° |
| 2026-05-05 16:44 | 44.41664 | 8.82565 | 9 ft | 12 kts | 91° |
| 2026-05-05 16:44 | 44.41640 | 8.82702 | 9 ft | 16 kts | 105° |
| 2026-05-05 16:44 | 44.41611 | 8.82858 | 9 ft | 16 kts | 104° |
| 2026-05-05 16:45 | 44.41581 | 8.83022 | 9 ft | 17 kts | 106° |
| 2026-05-05 16:45 | 44.41547 | 8.83191 | 9 ft | 18 kts | 106° |
| 2026-05-05 16:45 | 44.41513 | 8.83362 | 9 ft | 18 kts | 105° |
| 2026-05-05 16:45 | 44.41478 | 8.83542 | 9 ft | 19 kts | 105° |
| 2026-05-05 16:46 | 44.41444 | 8.83723 | 9 ft | 19 kts | 104° |
| 2026-05-05 16:46 | 44.41412 | 8.83908 | 9 ft | 19 kts | 103° |
| 2026-05-05 16:46 | 44.41380 | 8.84098 | 9 ft | 20 kts | 102° |
| 2026-05-05 16:46 | 44.41339 | 8.84285 | 9 ft | 20 kts | 109° |
| 2026-05-05 16:47 | 44.41298 | 8.84468 | 11 ft | 18 kts | 107° |
| 2026-05-05 16:47 | 44.41276 | 8.84572 | 13 ft | 10 kts | 106° |
| 2026-05-05 16:47 | 44.41257 | 8.84666 | 15 ft | 9 kts | 105° |
| 2026-05-05 16:47 | 44.41239 | 8.84765 | 15 ft | 11 kts | 104° |
| 2026-05-05 16:48 | 44.41222 | 8.84872 | 16 ft | 11 kts | 91° |
| 2026-05-05 16:48 | 44.41275 | 8.84929 | 17 ft | 11 kts | 13° |
| 2026-05-05 16:48 | 44.41337 | 8.84973 | 19 ft | 9 kts | 62° |
| 2026-05-05 16:48 | 44.41344 | 8.85069 | 17 ft | 10 kts | 55° |
| 2026-05-05 16:49 | 44.41385 | 8.85091 | 17 ft | 4 kts | 11° |
| 2026-05-05 16:49 | 44.41402 | 8.85098 | 17 ft | 0 kts | 16° |
| 2026-05-05 16:49 | 44.41404 | 8.85099 | 17 ft | 0 kts | 15° |